sensor_id;sensor_type;location;lat;lon;timestamp;P1;durP1;ratioP1;P2;durP2;ratioP2
56285;SDS011;42191;47.562;9.686;2023-04-03T00:00:16;39.88;;;37.42;;
56285;SDS011;42191;47.562;9.686;2023-04-03T00:02:42;38.17;;;35.88;;
56285;SDS011;42191;47.562;9.686;2023-04-03T00:05:08;36.65;;;34.45;;
56285;SDS011;42191;47.562;9.686;2023-04-03T00:07:34;38.10;;;35.80;;
56285;SDS011;42191;47.562;9.686;2023-04-03T00:10:01;38.65;;;36.35;;
56285;SDS011;42191;47.562;9.686;2023-04-03T00:12:27;38.03;;;35.80;;
56285;SDS011;42191;47.562;9.686;2023-04-03T00:14:53;37.25;;;35.05;;
56285;SDS011;42191;47.562;9.686;2023-04-03T00:17:20;37.42;;;35.22;;
56285;SDS011;42191;47.562;9.686;2023-04-03T00:19:46;36.83;;;34.63;;
56285;SDS011;42191;47.562;9.686;2023-04-03T00:22:12;38.95;;;36.45;;
56285;SDS011;42191;47.562;9.686;2023-04-03T00:24:38;35.10;;;33.00;;
56285;SDS011;42191;47.562;9.686;2023-04-03T00:27:04;37.22;;;35.03;;
56285;SDS011;42191;47.562;9.686;2023-04-03T00:29:30;36.72;;;34.53;;
56285;SDS011;42191;47.562;9.686;2023-04-03T00:31:56;38.08;;;35.85;;
56285;SDS011;42191;47.562;9.686;2023-04-03T00:34:22;39.20;;;36.90;;
56285;SDS011;42191;47.562;9.686;2023-04-03T00:36:50;37.53;;;35.33;;
56285;SDS011;42191;47.562;9.686;2023-04-03T00:39:16;37.85;;;35.55;;
56285;SDS011;42191;47.562;9.686;2023-04-03T00:41:42;39.25;;;36.95;;
56285;SDS011;42191;47.562;9.686;2023-04-03T00:46:53;38.45;;;36.15;;
56285;SDS011;42191;47.562;9.686;2023-04-03T00:49:19;36.75;;;34.55;;
56285;SDS011;42191;47.562;9.686;2023-04-03T00:51:46;40.42;;;38.03;;
56285;SDS011;42191;47.562;9.686;2023-04-03T00:54:12;37.88;;;35.58;;
56285;SDS011;42191;47.562;9.686;2023-04-03T00:56:38;38.55;;;36.25;;
56285;SDS011;42191;47.562;9.686;2023-04-03T00:59:12;36.75;;;34.47;;
56285;SDS011;42191;47.562;9.686;2023-04-03T01:01:47;37.72;;;35.42;;
56285;SDS011;42191;47.562;9.686;2023-04-03T01:07:03;40.13;;;37.72;;
56285;SDS011;42191;47.562;9.686;2023-04-03T01:09:36;38.80;;;36.40;;
56285;SDS011;42191;47.562;9.686;2023-04-03T01:13:08;38.67;;;36.35;;
56285;SDS011;42191;47.562;9.686;2023-04-03T01:15:11;40.95;;;38.45;;
56285;SDS011;42191;47.562;9.686;2023-04-03T01:17:41;40.05;;;37.45;;
56285;SDS011;42191;47.562;9.686;2023-04-03T01:25:40;38.72;;;36.33;;
56285;SDS011;42191;47.562;9.686;2023-04-03T01:28:12;41.13;;;38.63;;
56285;SDS011;42191;47.562;9.686;2023-04-03T01:33:34;39.28;;;36.85;;
56285;SDS011;42191;47.562;9.686;2023-04-03T01:36:02;39.70;;;37.08;;
56285;SDS011;42191;47.562;9.686;2023-04-03T01:38:29;39.05;;;36.65;;
56285;SDS011;42191;47.562;9.686;2023-04-03T01:40:55;38.35;;;35.95;;
56285;SDS011;42191;47.562;9.686;2023-04-03T01:43:22;39.33;;;36.83;;
56285;SDS011;42191;47.562;9.686;2023-04-03T01:45:48;39.88;;;37.38;;
56285;SDS011;42191;47.562;9.686;2023-04-03T01:48:15;42.40;;;39.78;;
56285;SDS011;42191;47.562;9.686;2023-04-03T01:50:41;40.63;;;38.03;;
56285;SDS011;42191;47.562;9.686;2023-04-03T01:53:07;39.63;;;37.13;;
56285;SDS011;42191;47.562;9.686;2023-04-03T01:55:33;40.35;;;37.75;;
56285;SDS011;42191;47.562;9.686;2023-04-03T01:57:59;41.17;;;38.58;;
56285;SDS011;42191;47.562;9.686;2023-04-03T02:00:25;41.38;;;38.78;;
56285;SDS011;42191;47.562;9.686;2023-04-03T02:02:52;40.85;;;38.25;;
56285;SDS011;42191;47.562;9.686;2023-04-03T02:05:18;40.80;;;38.25;;
56285;SDS011;42191;47.562;9.686;2023-04-03T02:07:44;40.05;;;37.45;;
56285;SDS011;42191;47.562;9.686;2023-04-03T02:10:11;41.25;;;38.67;;
56285;SDS011;42191;47.562;9.686;2023-04-03T02:12:37;40.63;;;38.05;;
56285;SDS011;42191;47.562;9.686;2023-04-03T02:15:03;42.30;;;39.60;;
56285;SDS011;42191;47.562;9.686;2023-04-03T02:17:30;40.72;;;38.22;;
56285;SDS011;42191;47.562;9.686;2023-04-03T02:19:56;41.53;;;38.92;;
56285;SDS011;42191;47.562;9.686;2023-04-03T02:22:22;40.80;;;38.17;;
56285;SDS011;42191;47.562;9.686;2023-04-03T02:24:48;40.50;;;37.95;;
56285;SDS011;42191;47.562;9.686;2023-04-03T02:27:14;41.22;;;38.63;;
56285;SDS011;42191;47.562;9.686;2023-04-03T02:29:41;41.30;;;38.55;;
56285;SDS011;42191;47.562;9.686;2023-04-03T02:32:07;40.03;;;37.40;;
56285;SDS011;42191;47.562;9.686;2023-04-03T02:34:33;42.42;;;39.70;;
56285;SDS011;42191;47.562;9.686;2023-04-03T02:36:59;40.55;;;38.03;;
56285;SDS011;42191;47.562;9.686;2023-04-03T02:39:25;42.45;;;39.78;;
56285;SDS011;42191;47.562;9.686;2023-04-03T02:41:51;41.88;;;39.20;;
56285;SDS011;42191;47.562;9.686;2023-04-03T02:44:18;43.88;;;41.08;;
56285;SDS011;42191;47.562;9.686;2023-04-03T02:46:44;42.80;;;40.10;;
56285;SDS011;42191;47.562;9.686;2023-04-03T02:49:10;40.92;;;38.22;;
56285;SDS011;42191;47.562;9.686;2023-04-03T02:51:36;41.80;;;39.10;;
56285;SDS011;42191;47.562;9.686;2023-04-03T02:54:02;42.30;;;39.60;;
56285;SDS011;42191;47.562;9.686;2023-04-03T02:56:29;41.60;;;38.97;;
56285;SDS011;42191;47.562;9.686;2023-04-03T02:58:55;41.75;;;39.05;;
56285;SDS011;42191;47.562;9.686;2023-04-03T03:01:21;42.00;;;39.30;;
56285;SDS011;42191;47.562;9.686;2023-04-03T03:03:47;41.92;;;39.22;;
56285;SDS011;42191;47.562;9.686;2023-04-03T03:06:14;42.75;;;40.05;;
56285;SDS011;42191;47.562;9.686;2023-04-03T03:08:41;41.28;;;38.55;;
56285;SDS011;42191;47.562;9.686;2023-04-03T03:11:08;42.47;;;39.70;;
56285;SDS011;42191;47.562;9.686;2023-04-03T03:13:35;39.00;;;36.50;;
56285;SDS011;42191;47.562;9.686;2023-04-03T03:16:01;43.30;;;40.50;;
56285;SDS011;42191;47.562;9.686;2023-04-03T03:18:28;41.10;;;38.40;;
56285;SDS011;42191;47.562;9.686;2023-04-03T03:20:56;42.22;;;39.53;;
56285;SDS011;42191;47.562;9.686;2023-04-03T03:23:23;42.70;;;40.00;;
56285;SDS011;42191;47.562;9.686;2023-04-03T03:26:09;42.88;;;40.05;;
56285;SDS011;42191;47.562;9.686;2023-04-03T03:28:37;41.60;;;38.90;;
56285;SDS011;42191;47.562;9.686;2023-04-03T03:31:04;42.50;;;39.80;;
56285;SDS011;42191;47.562;9.686;2023-04-03T03:33:31;41.13;;;38.53;;
56285;SDS011;42191;47.562;9.686;2023-04-03T03:35:57;41.17;;;38.47;;
56285;SDS011;42191;47.562;9.686;2023-04-03T03:38:24;42.55;;;39.63;;
56285;SDS011;42191;47.562;9.686;2023-04-03T03:40:51;41.97;;;39.17;;
56285;SDS011;42191;47.562;9.686;2023-04-03T03:43:17;42.30;;;39.30;;
56285;SDS011;42191;47.562;9.686;2023-04-03T03:45:45;42.65;;;39.85;;
56285;SDS011;42191;47.562;9.686;2023-04-03T03:48:14;43.67;;;40.67;;
56285;SDS011;42191;47.562;9.686;2023-04-03T03:50:41;41.28;;;38.55;;
56285;SDS011;42191;47.562;9.686;2023-04-03T03:53:07;42.63;;;39.90;;
56285;SDS011;42191;47.562;9.686;2023-04-03T03:55:33;42.55;;;39.75;;
56285;SDS011;42191;47.562;9.686;2023-04-03T03:57:59;44.80;;;41.90;;
56285;SDS011;42191;47.562;9.686;2023-04-03T04:00:26;41.63;;;38.92;;
56285;SDS011;42191;47.562;9.686;2023-04-03T04:02:52;44.90;;;41.97;;
56285;SDS011;42191;47.562;9.686;2023-04-03T04:05:18;40.08;;;37.47;;
56285;SDS011;42191;47.562;9.686;2023-04-03T04:07:44;43.53;;;40.63;;
56285;SDS011;42191;47.562;9.686;2023-04-03T04:10:10;41.67;;;39.05;;
56285;SDS011;42191;47.562;9.686;2023-04-03T04:12:38;42.15;;;39.45;;
56285;SDS011;42191;47.562;9.686;2023-04-03T04:15:04;42.80;;;40.10;;
56285;SDS011;42191;47.562;9.686;2023-04-03T04:17:31;42.15;;;39.35;;
56285;SDS011;42191;47.562;9.686;2023-04-03T04:19:57;41.67;;;38.97;;
56285;SDS011;42191;47.562;9.686;2023-04-03T04:22:23;43.45;;;40.65;;
56285;SDS011;42191;47.562;9.686;2023-04-03T04:24:49;40.83;;;38.22;;
56285;SDS011;42191;47.562;9.686;2023-04-03T04:27:16;43.55;;;40.70;;
56285;SDS011;42191;47.562;9.686;2023-04-03T04:29:42;41.53;;;38.60;;
56285;SDS011;42191;47.562;9.686;2023-04-03T04:32:08;44.20;;;41.38;;
56285;SDS011;42191;47.562;9.686;2023-04-03T04:34:34;44.63;;;41.63;;
56285;SDS011;42191;47.562;9.686;2023-04-03T04:37:00;41.85;;;39.03;;
56285;SDS011;42191;47.562;9.686;2023-04-03T04:39:26;43.05;;;40.25;;
56285;SDS011;42191;47.562;9.686;2023-04-03T04:41:52;43.15;;;40.35;;
56285;SDS011;42191;47.562;9.686;2023-04-03T04:44:19;43.10;;;40.30;;
56285;SDS011;42191;47.562;9.686;2023-04-03T04:46:45;44.22;;;41.35;;
56285;SDS011;42191;47.562;9.686;2023-04-03T04:49:11;41.35;;;38.65;;
56285;SDS011;42191;47.562;9.686;2023-04-03T04:51:37;40.33;;;37.72;;
56285;SDS011;42191;47.562;9.686;2023-04-03T04:54:03;44.05;;;41.15;;
56285;SDS011;42191;47.562;9.686;2023-04-03T04:56:30;43.65;;;40.65;;
56285;SDS011;42191;47.562;9.686;2023-04-03T04:58:56;42.33;;;39.63;;
56285;SDS011;42191;47.562;9.686;2023-04-03T05:01:22;42.88;;;40.08;;
56285;SDS011;42191;47.562;9.686;2023-04-03T05:03:48;43.67;;;40.85;;
56285;SDS011;42191;47.562;9.686;2023-04-03T05:06:14;41.88;;;39.17;;
56285;SDS011;42191;47.562;9.686;2023-04-03T05:08:40;44.00;;;41.10;;
56285;SDS011;42191;47.562;9.686;2023-04-03T05:11:06;42.42;;;39.60;;
56285;SDS011;42191;47.562;9.686;2023-04-03T05:13:33;42.10;;;39.30;;
56285;SDS011;42191;47.562;9.686;2023-04-03T05:15:59;44.58;;;41.67;;
56285;SDS011;42191;47.562;9.686;2023-04-03T05:18:25;40.92;;;38.22;;
56285;SDS011;42191;47.562;9.686;2023-04-03T05:20:51;41.67;;;39.00;;
56285;SDS011;42191;47.562;9.686;2023-04-03T05:23:18;41.33;;;38.67;;
56285;SDS011;42191;47.562;9.686;2023-04-03T05:25:44;43.92;;;41.08;;
56285;SDS011;42191;47.562;9.686;2023-04-03T05:28:11;41.85;;;39.15;;
56285;SDS011;42191;47.562;9.686;2023-04-03T05:30:38;42.15;;;39.35;;
56285;SDS011;42191;47.562;9.686;2023-04-03T05:33:04;41.15;;;38.45;;
56285;SDS011;42191;47.562;9.686;2023-04-03T05:35:31;40.17;;;37.58;;
56285;SDS011;42191;47.562;9.686;2023-04-03T05:37:57;43.70;;;40.90;;
56285;SDS011;42191;47.562;9.686;2023-04-03T05:40:23;43.38;;;40.58;;
56285;SDS011;42191;47.562;9.686;2023-04-03T05:42:50;43.03;;;40.22;;
56285;SDS011;42191;47.562;9.686;2023-04-03T05:45:18;40.83;;;38.22;;
56285;SDS011;42191;47.562;9.686;2023-04-03T05:47:44;42.13;;;39.42;;
56285;SDS011;42191;47.562;9.686;2023-04-03T05:50:10;42.95;;;40.15;;
56285;SDS011;42191;47.562;9.686;2023-04-03T05:52:37;41.30;;;38.70;;
56285;SDS011;42191;47.562;9.686;2023-04-03T05:55:06;43.03;;;40.33;;
56285;SDS011;42191;47.562;9.686;2023-04-03T05:57:33;42.45;;;39.75;;
56285;SDS011;42191;47.562;9.686;2023-04-03T05:59:59;42.50;;;39.80;;
56285;SDS011;42191;47.562;9.686;2023-04-03T06:02:25;43.10;;;40.30;;
56285;SDS011;42191;47.562;9.686;2023-04-03T06:04:52;42.17;;;39.47;;
56285;SDS011;42191;47.562;9.686;2023-04-03T06:07:19;43.28;;;40.55;;
56285;SDS011;42191;47.562;9.686;2023-04-03T06:09:47;40.95;;;38.33;;
56285;SDS011;42191;47.562;9.686;2023-04-03T06:12:14;41.22;;;38.58;;
56285;SDS011;42191;47.562;9.686;2023-04-03T06:14:41;42.03;;;39.33;;
56285;SDS011;42191;47.562;9.686;2023-04-03T06:17:07;40.33;;;37.58;;
56285;SDS011;42191;47.562;9.686;2023-04-03T06:19:34;40.63;;;37.78;;
56285;SDS011;42191;47.562;9.686;2023-04-03T06:22:00;43.72;;;40.92;;
56285;SDS011;42191;47.562;9.686;2023-04-03T06:24:28;42.72;;;40.03;;
56285;SDS011;42191;47.562;9.686;2023-04-03T06:26:55;44.22;;;41.22;;
56285;SDS011;42191;47.562;9.686;2023-04-03T06:29:23;42.28;;;39.53;;
56285;SDS011;42191;47.562;9.686;2023-04-03T06:31:50;40.97;;;38.28;;
56285;SDS011;42191;47.562;9.686;2023-04-03T06:34:16;42.83;;;40.13;;
56285;SDS011;42191;47.562;9.686;2023-04-03T06:36:43;41.72;;;38.97;;
56285;SDS011;42191;47.562;9.686;2023-04-03T06:39:14;41.08;;;38.45;;
56285;SDS011;42191;47.562;9.686;2023-04-03T06:41:43;40.33;;;37.78;;
56285;SDS011;42191;47.562;9.686;2023-04-03T06:44:09;40.17;;;37.58;;
56285;SDS011;42191;47.562;9.686;2023-04-03T06:46:37;42.47;;;39.75;;
56285;SDS011;42191;47.562;9.686;2023-04-03T06:49:04;41.63;;;38.75;;
56285;SDS011;42191;47.562;9.686;2023-04-03T06:51:33;40.58;;;37.97;;
56285;SDS011;42191;47.562;9.686;2023-04-03T06:54:00;43.72;;;40.83;;
56285;SDS011;42191;47.562;9.686;2023-04-03T06:56:28;40.45;;;37.90;;
56285;SDS011;42191;47.562;9.686;2023-04-03T06:58:54;44.08;;;41.13;;
56285;SDS011;42191;47.562;9.686;2023-04-03T07:01:25;41.35;;;38.70;;
56285;SDS011;42191;47.562;9.686;2023-04-03T07:03:53;41.03;;;38.38;;
56285;SDS011;42191;47.562;9.686;2023-04-03T07:06:20;40.78;;;38.17;;
56285;SDS011;42191;47.562;9.686;2023-04-03T07:08:46;41.83;;;39.03;;
56285;SDS011;42191;47.562;9.686;2023-04-03T07:11:14;43.88;;;40.88;;
56285;SDS011;42191;47.562;9.686;2023-04-03T07:13:40;38.90;;;36.40;;
56285;SDS011;42191;47.562;9.686;2023-04-03T07:16:07;41.15;;;38.60;;
56285;SDS011;42191;47.562;9.686;2023-04-03T07:18:34;40.83;;;38.22;;
56285;SDS011;42191;47.562;9.686;2023-04-03T07:21:01;40.78;;;38.13;;
56285;SDS011;42191;47.562;9.686;2023-04-03T07:23:28;42.30;;;39.65;;
56285;SDS011;42191;47.562;9.686;2023-04-03T07:25:54;40.40;;;37.75;;
56285;SDS011;42191;47.562;9.686;2023-04-03T07:28:21;39.08;;;36.58;;
56285;SDS011;42191;47.562;9.686;2023-04-03T07:30:58;38.65;;;36.05;;
56285;SDS011;42191;47.562;9.686;2023-04-03T07:33:25;42.55;;;39.85;;
56285;SDS011;42191;47.562;9.686;2023-04-03T07:35:51;40.78;;;38.17;;
56285;SDS011;42191;47.562;9.686;2023-04-03T07:38:18;39.08;;;36.58;;
56285;SDS011;42191;47.562;9.686;2023-04-03T07:40:47;39.40;;;36.90;;
56285;SDS011;42191;47.562;9.686;2023-04-03T07:43:15;40.17;;;37.67;;
56285;SDS011;42191;47.562;9.686;2023-04-03T07:45:42;39.55;;;37.05;;
56285;SDS011;42191;47.562;9.686;2023-04-03T07:48:09;39.53;;;37.08;;
56285;SDS011;42191;47.562;9.686;2023-04-03T07:50:36;39.15;;;36.60;;
56285;SDS011;42191;47.562;9.686;2023-04-03T07:53:02;40.60;;;38.10;;
56285;SDS011;42191;47.562;9.686;2023-04-03T07:55:29;38.83;;;36.42;;
56285;SDS011;42191;47.562;9.686;2023-04-03T07:57:57;38.78;;;36.38;;
56285;SDS011;42191;47.562;9.686;2023-04-03T08:00:23;38.40;;;35.75;;
56285;SDS011;42191;47.562;9.686;2023-04-03T08:02:50;39.95;;;37.45;;
56285;SDS011;42191;47.562;9.686;2023-04-03T08:05:19;39.83;;;37.33;;
56285;SDS011;42191;47.562;9.686;2023-04-03T08:07:46;38.60;;;36.20;;
56285;SDS011;42191;47.562;9.686;2023-04-03T08:10:13;39.33;;;36.92;;
56285;SDS011;42191;47.562;9.686;2023-04-03T08:12:39;39.92;;;37.42;;
56285;SDS011;42191;47.562;9.686;2023-04-03T08:15:06;38.53;;;36.17;;
56285;SDS011;42191;47.562;9.686;2023-04-03T08:17:33;40.53;;;37.95;;
56285;SDS011;42191;47.562;9.686;2023-04-03T08:20:00;41.67;;;39.10;;
56285;SDS011;42191;47.562;9.686;2023-04-03T08:22:28;39.55;;;37.05;;
56285;SDS011;42191;47.562;9.686;2023-04-03T08:24:54;36.95;;;34.65;;
56285;SDS011;42191;47.562;9.686;2023-04-03T08:27:20;40.15;;;37.65;;
56285;SDS011;42191;47.562;9.686;2023-04-03T08:29:46;39.35;;;36.95;;
56285;SDS011;42191;47.562;9.686;2023-04-03T08:32:13;41.80;;;39.20;;
56285;SDS011;42191;47.562;9.686;2023-04-03T08:34:39;36.90;;;34.60;;
56285;SDS011;42191;47.562;9.686;2023-04-03T08:37:05;39.35;;;36.95;;
56285;SDS011;42191;47.562;9.686;2023-04-03T08:39:31;38.67;;;36.28;;
56285;SDS011;42191;47.562;9.686;2023-04-03T08:41:58;39.28;;;36.88;;
56285;SDS011;42191;47.562;9.686;2023-04-03T08:47:37;40.35;;;37.90;;
56285;SDS011;42191;47.562;9.686;2023-04-03T08:50:10;38.78;;;36.40;;
56285;SDS011;42191;47.562;9.686;2023-04-03T08:52:50;40.33;;;37.83;;
56285;SDS011;42191;47.562;9.686;2023-04-03T08:55:39;40.80;;;38.30;;
56285;SDS011;42191;47.562;9.686;2023-04-03T08:58:23;36.42;;;34.15;;
56285;SDS011;42191;47.562;9.686;2023-04-03T09:00:53;38.60;;;36.20;;
56285;SDS011;42191;47.562;9.686;2023-04-03T09:03:34;38.10;;;35.58;;
56285;SDS011;42191;47.562;9.686;2023-04-03T09:06:03;38.90;;;36.47;;
56285;SDS011;42191;47.562;9.686;2023-04-03T09:08:53;39.55;;;37.13;;
56285;SDS011;42191;47.562;9.686;2023-04-03T09:11:25;37.47;;;35.15;;
56285;SDS011;42191;47.562;9.686;2023-04-03T09:14:02;37.85;;;35.45;;
56285;SDS011;42191;47.562;9.686;2023-04-03T09:16:57;37.70;;;35.28;;
56285;SDS011;42191;47.562;9.686;2023-04-03T09:24:37;37.55;;;35.25;;
56285;SDS011;42191;47.562;9.686;2023-04-03T09:27:05;37.50;;;35.20;;
56285;SDS011;42191;47.562;9.686;2023-04-03T09:29:35;38.63;;;35.92;;
56285;SDS011;42191;47.562;9.686;2023-04-03T09:35:04;38.85;;;36.35;;
56285;SDS011;42191;47.562;9.686;2023-04-03T09:37:44;39.63;;;37.17;;
56285;SDS011;42191;47.562;9.686;2023-04-03T09:42:57;38.03;;;35.67;;
56285;SDS011;42191;47.562;9.686;2023-04-03T09:45:26;37.85;;;35.47;;
56285;SDS011;42191;47.562;9.686;2023-04-03T09:50:37;37.72;;;35.33;;
56285;SDS011;42191;47.562;9.686;2023-04-03T09:58:39;37.72;;;35.33;;
56285;SDS011;42191;47.562;9.686;2023-04-03T10:01:10;37.55;;;35.17;;
56285;SDS011;42191;47.562;9.686;2023-04-03T10:04:06;36.97;;;34.67;;
56285;SDS011;42191;47.562;9.686;2023-04-03T10:06:34;37.40;;;35.00;;
56285;SDS011;42191;47.562;9.686;2023-04-03T10:09:25;37.67;;;35.28;;
56285;SDS011;42191;47.562;9.686;2023-04-03T10:11:57;36.95;;;34.55;;
56285;SDS011;42191;47.562;9.686;2023-04-03T10:14:35;38.38;;;35.88;;
56285;SDS011;42191;47.562;9.686;2023-04-03T10:17:05;37.45;;;35.08;;
56285;SDS011;42191;47.562;9.686;2023-04-03T10:19:58;36.95;;;34.55;;
56285;SDS011;42191;47.562;9.686;2023-04-03T10:27:51;37.08;;;34.70;;
56285;SDS011;42191;47.562;9.686;2023-04-03T10:32:58;35.67;;;33.45;;
56285;SDS011;42191;47.562;9.686;2023-04-03T10:57:58;33.65;;;31.58;;
56285;SDS011;42191;47.562;9.686;2023-04-03T11:00:36;37.13;;;34.75;;
56285;SDS011;42191;47.562;9.686;2023-04-03T11:03:14;37.00;;;34.50;;
56285;SDS011;42191;47.562;9.686;2023-04-03T11:05:48;36.20;;;33.88;;
56285;SDS011;42191;47.562;9.686;2023-04-03T11:11:08;36.13;;;33.92;;
56285;SDS011;42191;47.562;9.686;2023-04-03T11:14:24;36.75;;;34.45;;
56285;SDS011;42191;47.562;9.686;2023-04-03T11:16:42;36.63;;;34.22;;
56285;SDS011;42191;47.562;9.686;2023-04-03T11:21:54;35.33;;;33.15;;
56285;SDS011;42191;47.562;9.686;2023-04-03T11:24:26;34.13;;;32.03;;
56285;SDS011;42191;47.562;9.686;2023-04-03T11:26:55;37.45;;;35.13;;
56285;SDS011;42191;47.562;9.686;2023-04-03T11:29:24;35.67;;;33.50;;
56285;SDS011;42191;47.562;9.686;2023-04-03T11:34:42;34.97;;;32.88;;
56285;SDS011;42191;47.562;9.686;2023-04-03T11:37:12;34.80;;;32.70;;
56285;SDS011;42191;47.562;9.686;2023-04-03T11:39:54;34.22;;;32.13;;
56285;SDS011;42191;47.562;9.686;2023-04-03T11:42:37;34.97;;;32.67;;
56285;SDS011;42191;47.562;9.686;2023-04-03T11:45:15;35.30;;;33.17;;
56285;SDS011;42191;47.562;9.686;2023-04-03T11:50:48;34.15;;;32.08;;
56285;SDS011;42191;47.562;9.686;2023-04-03T11:55:42;34.58;;;32.47;;
56285;SDS011;42191;47.562;9.686;2023-04-03T11:58:18;35.60;;;33.45;;
56285;SDS011;42191;47.562;9.686;2023-04-03T12:13:39;35.92;;;33.72;;
56285;SDS011;42191;47.562;9.686;2023-04-03T12:16:06;35.15;;;33.05;;
56285;SDS011;42191;47.562;9.686;2023-04-03T12:18:58;33.25;;;31.25;;
56285;SDS011;42191;47.562;9.686;2023-04-03T12:29:43;36.38;;;34.17;;
56285;SDS011;42191;47.562;9.686;2023-04-03T12:44:13;33.78;;;31.70;;
56285;SDS011;42191;47.562;9.686;2023-04-03T12:46:52;34.83;;;32.72;;
56285;SDS011;42191;47.562;9.686;2023-04-03T12:52:29;33.38;;;31.27;;
56285;SDS011;42191;47.562;9.686;2023-04-03T12:55:16;35.95;;;33.75;;
56285;SDS011;42191;47.562;9.686;2023-04-03T12:57:43;34.88;;;32.50;;
56285;SDS011;42191;47.562;9.686;2023-04-03T13:02:59;34.33;;;32.17;;
56285;SDS011;42191;47.562;9.686;2023-04-03T13:05:27;34.65;;;32.55;;
56285;SDS011;42191;47.562;9.686;2023-04-03T13:08:03;36.13;;;33.92;;
56285;SDS011;42191;47.562;9.686;2023-04-03T13:10:49;36.33;;;33.83;;
56285;SDS011;42191;47.562;9.686;2023-04-03T13:13:25;32.80;;;30.80;;
56285;SDS011;42191;47.562;9.686;2023-04-03T13:15:52;34.08;;;31.98;;
56285;SDS011;42191;47.562;9.686;2023-04-03T13:21:03;33.85;;;31.85;;
56285;SDS011;42191;47.562;9.686;2023-04-03T13:23:33;34.13;;;32.03;;
56285;SDS011;42191;47.562;9.686;2023-04-03T13:26:03;35.33;;;33.22;;
56285;SDS011;42191;47.562;9.686;2023-04-03T13:28:31;33.15;;;31.05;;
56285;SDS011;42191;47.562;9.686;2023-04-03T13:33:53;34.17;;;32.08;;
56285;SDS011;42191;47.562;9.686;2023-04-03T13:36:31;35.47;;;33.13;;
56285;SDS011;42191;47.562;9.686;2023-04-03T13:39:06;33.58;;;31.55;;
56285;SDS011;42191;47.562;9.686;2023-04-03T13:41:36;33.67;;;31.52;;
56285;SDS011;42191;47.562;9.686;2023-04-03T13:44:15;34.83;;;32.65;;
56285;SDS011;42191;47.562;9.686;2023-04-03T13:46:50;34.53;;;32.47;;
56285;SDS011;42191;47.562;9.686;2023-04-03T13:49:33;35.65;;;33.53;;
56285;SDS011;42191;47.562;9.686;2023-04-03T13:54:54;36.80;;;34.60;;
56285;SDS011;42191;47.562;9.686;2023-04-03T13:57:23;35.03;;;32.85;;
56285;SDS011;42191;47.562;9.686;2023-04-03T13:59:50;35.50;;;33.40;;
56285;SDS011;42191;47.562;9.686;2023-04-03T14:02:18;34.30;;;32.10;;
56285;SDS011;42191;47.562;9.686;2023-04-03T14:04:56;34.83;;;32.63;;
56285;SDS011;42191;47.562;9.686;2023-04-03T14:07:26;35.28;;;33.08;;
56285;SDS011;42191;47.562;9.686;2023-04-03T14:09:54;34.72;;;32.63;;
56285;SDS011;42191;47.562;9.686;2023-04-03T14:12:54;36.20;;;33.95;;
56285;SDS011;42191;47.562;9.686;2023-04-03T14:15:22;33.70;;;31.70;;
56285;SDS011;42191;47.562;9.686;2023-04-03T14:17:51;36.13;;;33.92;;
56285;SDS011;42191;47.562;9.686;2023-04-03T14:20:19;35.92;;;33.75;;
56285;SDS011;42191;47.562;9.686;2023-04-03T14:22:46;35.65;;;33.53;;
56285;SDS011;42191;47.562;9.686;2023-04-03T14:25:13;35.53;;;33.42;;
56285;SDS011;42191;47.562;9.686;2023-04-03T14:27:42;36.45;;;34.25;;
56285;SDS011;42191;47.562;9.686;2023-04-03T14:30:21;35.13;;;33.03;;
56285;SDS011;42191;47.562;9.686;2023-04-03T14:32:53;32.28;;;30.27;;
56285;SDS011;42191;47.562;9.686;2023-04-03T14:35:20;35.80;;;33.40;;
56285;SDS011;42191;47.562;9.686;2023-04-03T14:37:47;35.85;;;33.47;;
56285;SDS011;42191;47.562;9.686;2023-04-03T14:40:15;34.75;;;32.65;;
56285;SDS011;42191;47.562;9.686;2023-04-03T14:42:49;34.50;;;32.40;;
56285;SDS011;42191;47.562;9.686;2023-04-03T14:45:15;35.13;;;33.03;;
56285;SDS011;42191;47.562;9.686;2023-04-03T14:47:47;34.33;;;32.22;;
56285;SDS011;42191;47.562;9.686;2023-04-03T14:50:16;34.53;;;32.42;;
56285;SDS011;42191;47.562;9.686;2023-04-03T14:52:46;36.90;;;34.50;;
56285;SDS011;42191;47.562;9.686;2023-04-03T14:55:17;35.50;;;33.30;;
56285;SDS011;42191;47.562;9.686;2023-04-03T14:57:45;35.25;;;33.08;;
56285;SDS011;42191;47.562;9.686;2023-04-03T15:00:15;35.30;;;33.17;;
56285;SDS011;42191;47.562;9.686;2023-04-03T15:02:43;35.08;;;32.95;;
56285;SDS011;42191;47.562;9.686;2023-04-03T15:05:10;34.78;;;32.67;;
56285;SDS011;42191;47.562;9.686;2023-04-03T15:07:38;35.28;;;33.08;;
56285;SDS011;42191;47.562;9.686;2023-04-03T15:10:14;36.75;;;34.45;;
56285;SDS011;42191;47.562;9.686;2023-04-03T15:12:41;35.17;;;33.03;;
56285;SDS011;42191;47.562;9.686;2023-04-03T15:15:08;34.65;;;32.47;;
56285;SDS011;42191;47.562;9.686;2023-04-03T15:17:34;36.90;;;34.60;;
56285;SDS011;42191;47.562;9.686;2023-04-03T15:20:01;37.08;;;34.78;;
56285;SDS011;42191;47.562;9.686;2023-04-03T15:22:28;36.97;;;34.47;;
56285;SDS011;42191;47.562;9.686;2023-04-03T15:24:54;38.28;;;35.78;;
56285;SDS011;42191;47.562;9.686;2023-04-03T15:27:20;33.25;;;31.25;;
56285;SDS011;42191;47.562;9.686;2023-04-03T15:29:46;34.85;;;32.65;;
56285;SDS011;42191;47.562;9.686;2023-04-03T15:32:13;36.97;;;34.78;;
56285;SDS011;42191;47.562;9.686;2023-04-03T15:34:39;35.40;;;33.20;;
56285;SDS011;42191;47.562;9.686;2023-04-03T15:37:05;35.72;;;33.58;;
56285;SDS011;42191;47.562;9.686;2023-04-03T15:39:31;36.47;;;34.17;;
56285;SDS011;42191;47.562;9.686;2023-04-03T15:41:58;36.03;;;33.60;;
56285;SDS011;42191;47.562;9.686;2023-04-03T15:44:31;34.53;;;32.42;;
56285;SDS011;42191;47.562;9.686;2023-04-03T15:46:58;37.03;;;34.72;;
56285;SDS011;42191;47.562;9.686;2023-04-03T15:49:25;39.20;;;36.60;;
56285;SDS011;42191;47.562;9.686;2023-04-03T15:51:52;37.95;;;35.25;;
56285;SDS011;42191;47.562;9.686;2023-04-03T15:54:18;39.85;;;37.25;;
56285;SDS011;42191;47.562;9.686;2023-04-03T15:56:45;37.80;;;35.42;;
56285;SDS011;42191;47.562;9.686;2023-04-03T15:59:11;39.63;;;37.10;;
56285;SDS011;42191;47.562;9.686;2023-04-03T16:01:37;36.90;;;34.40;;
56285;SDS011;42191;47.562;9.686;2023-04-03T16:04:04;39.17;;;36.67;;
56285;SDS011;42191;47.562;9.686;2023-04-03T16:06:33;37.10;;;34.80;;
56285;SDS011;42191;47.562;9.686;2023-04-03T16:08:59;38.28;;;35.92;;
56285;SDS011;42191;47.562;9.686;2023-04-03T16:11:26;35.78;;;33.58;;
56285;SDS011;42191;47.562;9.686;2023-04-03T16:13:55;37.67;;;35.28;;
56285;SDS011;42191;47.562;9.686;2023-04-03T16:16:22;38.10;;;35.70;;
56285;SDS011;42191;47.562;9.686;2023-04-03T16:18:49;36.28;;;34.08;;
56285;SDS011;42191;47.562;9.686;2023-04-03T16:21:16;39.67;;;37.15;;
56285;SDS011;42191;47.562;9.686;2023-04-03T16:23:43;37.08;;;34.78;;
56285;SDS011;42191;47.562;9.686;2023-04-03T16:26:10;39.28;;;36.55;;
56285;SDS011;42191;47.562;9.686;2023-04-03T16:28:36;37.80;;;35.38;;
56285;SDS011;42191;47.562;9.686;2023-04-03T16:31:02;38.10;;;35.78;;
56285;SDS011;42191;47.562;9.686;2023-04-03T16:33:29;36.30;;;34.10;;
56285;SDS011;42191;47.562;9.686;2023-04-03T16:35:56;36.55;;;34.25;;
56285;SDS011;42191;47.562;9.686;2023-04-03T16:38:22;38.75;;;36.28;;